Serenity — WD17888 — position and weather

sailwx.info

Track history (hours):
 
Tides and Currents Weather Stations Pressure Air Temp Water Temp Dewpoint Dewpoint Depression Visibility Wind Speed Wind Dir Waves Ship Positions

Serenity

Last reported at 2018-Mar-15 13:00 UTC. Time now 2018-Apr-24 02:43 UTC.
Position N 24°16' W 076°36'.
Warning: this ship's position is 39 days out of date.

Length 40 m; draft 2.3 m.

Type: Pleasure craft. MMSI: 367733210.

Date/timePositionNaut miles runAvg speedWind from/ knotsBaromVisibWave heightAir tempDewpointWater temp
2018-Mar-15 13:00N 24°16' W 076°36'510.0
2018-Mar-15 12:30N 24°12' W 076°33'510.0
2018-Mar-15 12:00N 24°08' W 076°29'5 9.9
2018-Mar-15 11:30N 24°05' W 076°25'4 7.5
2018-Mar-15 10:59N 24°02' W 076°22'0 0.1
2018-Mar-15 10:30N 24°02' W 076°22'0 0.0
2018-Mar-15 10:00N 24°02' W 076°22'0 0.0
2018-Mar-15 09:30N 24°02' W 076°22'0 0.0
2018-Mar-15 09:00N 24°02' W 076°22'0 0.0
2018-Mar-15 08:30N 24°02' W 076°22'0 0.0
2018-Mar-15 08:00N 24°02' W 076°22'0 0.0
2018-Mar-15 07:30N 24°02' W 076°22'0 0.0
2018-Mar-15 06:59N 24°02' W 076°22'0 0.0
2018-Mar-15 06:30N 24°02' W 076°22'0 0.0
2018-Mar-15 06:00N 24°02' W 076°22'0 0.0
2018-Mar-15 05:29N 24°02' W 076°22'0 0.0
2018-Mar-15 04:59N 24°02' W 076°22'0 0.0
2018-Mar-15 04:30N 24°02' W 076°22'0 0.0
2018-Mar-15 04:00N 24°02' W 076°22'0 0.0
2018-Mar-15 03:30N 24°02' W 076°22'0 0.0
2018-Mar-15 02:59N 24°02' W 076°22'0 0.0
2018-Mar-15 02:29N 24°02' W 076°22'0 0.0
2018-Mar-15 01:59N 24°02' W 076°22'0 0.0
2018-Mar-15 01:29N 24°02' W 076°22'0 0.0
2018-Mar-15 00:59N 24°02' W 076°22'0 0.0
2018-Mar-14 21:33N 24°02' W 076°22'0 0.0
2018-Mar-14 21:02N 24°02' W 076°22'0 0.1
2018-Mar-14 20:56N 24°02' W 076°22'0 0.0
2018-Mar-14 20:30N 24°02' W 076°22'0 0.0
2018-Mar-14 19:59N 24°02' W 076°22'0 0.0
2018-Mar-14 19:30N 24°02' W 076°22'0 0.0
2018-Mar-14 18:59N 24°02' W 076°22'0 0.0
2018-Mar-14 18:29N 24°02' W 076°22'0 0.0
2018-Mar-14 18:00N 24°02' W 076°22'0 0.0
2018-Mar-14 17:29N 24°02' W 076°22'0 0.0
2018-Mar-14 16:59N 24°02' W 076°22'0 0.0
2018-Mar-14 16:30N 24°02' W 076°22'0 0.0
2018-Mar-14 15:57N 24°02' W 076°22'0 0.0
2018-Mar-14 15:30N 24°02' W 076°22'0 0.0
2018-Mar-14 14:59N 24°02' W 076°22'4 2.5
2018-Mar-14 13:32N 24°04' W 076°26'010.0
2018-Mar-14 13:30N 24°04' W 076°26'510.2
2018-Mar-14 13:00N 24°08' W 076°29'3 5.2
2018-Mar-14 12:28N 24°11' W 076°28'0 0.0
2018-Mar-14 06:49N 24°11' W 076°28'0 0.0
2018-Mar-14 06:28N 24°11' W 076°28'0 0.0
2018-Mar-14 05:58N 24°11' W 076°28'0 0.0
2018-Mar-14 05:28N 24°11' W 076°28'0 0.0
2018-Mar-14 04:58N 24°11' W 076°28'0 0.0
2018-Mar-14 04:28N 24°11' W 076°28'0 0.0
2018-Mar-14 03:58N 24°11' W 076°28'0 0.0
2018-Mar-14 03:28N 24°11' W 076°28'0 0.0
2018-Mar-14 02:58N 24°11' W 076°28'0 0.0
2018-Mar-14 02:28N 24°11' W 076°28'0 0.0
2018-Mar-14 01:58N 24°11' W 076°28'0 0.0
2018-Mar-14 01:28N 24°11' W 076°28'0 0.0
2018-Mar-14 00:58N 24°11' W 076°28'0 0.0
2018-Mar-13 22:32N 24°11' W 076°28'0 0.0
2018-Mar-13 22:20N 24°11' W 076°28'0 0.0
2018-Mar-13 21:56N 24°11' W 076°28'0 0.0
2018-Mar-13 21:29N 24°11' W 076°28'0 0.0
2018-Mar-13 20:58N 24°11' W 076°28'0 0.0
2018-Mar-13 20:28N 24°11' W 076°28'0 0.0
2018-Mar-13 19:58N 24°11' W 076°28'0 0.0
2018-Mar-13 19:28N 24°11' W 076°28'0 0.0
2018-Mar-13 18:58N 24°11' W 076°28'0 0.0
2018-Mar-13 18:28N 24°11' W 076°28'0 0.0
2018-Mar-13 17:58N 24°11' W 076°28'8 0.2
2018-Mar-12 05:57N 24°18' W 076°32'  
Track history (hours):
 
Tides and Currents Weather Stations Pressure Air Temp Water Temp Dewpoint Dewpoint Depression Visibility Wind Speed Wind Dir Waves Ship Positions

Serenity

Last reported at 2018-Mar-15 13:00 UTC. Time now 2018-Apr-24 02:43 UTC.
Position N 24°16' W 076°36'.
Warning: this ship's position is 39 days out of date.

Length 40 m; draft 2.3 m.

Type: Pleasure craft. MMSI: 367733210.

Date/timePositionNaut miles runAvg speedWind from/ knotsBaromVisibWave heightAir tempDewpointWater temp
2018-Mar-15 13:00N 24°16' W 076°36'510.0
2018-Mar-15 12:30N 24°12' W 076°33'510.0
2018-Mar-15 12:00N 24°08' W 076°29'5 9.9
2018-Mar-15 11:30N 24°05' W 076°25'4 7.5
2018-Mar-15 10:59N 24°02' W 076°22'0 0.1
2018-Mar-15 10:30N 24°02' W 076°22'0 0.0
2018-Mar-15 10:00N 24°02' W 076°22'0 0.0
2018-Mar-15 09:30N 24°02' W 076°22'0 0.0
2018-Mar-15 09:00N 24°02' W 076°22'0 0.0
2018-Mar-15 08:30N 24°02' W 076°22'0 0.0
2018-Mar-15 08:00N 24°02' W 076°22'0 0.0
2018-Mar-15 07:30N 24°02' W 076°22'0 0.0
2018-Mar-15 06:59N 24°02' W 076°22'0 0.0
2018-Mar-15 06:30N 24°02' W 076°22'0 0.0
2018-Mar-15 06:00N 24°02' W 076°22'0 0.0
2018-Mar-15 05:29N 24°02' W 076°22'0 0.0
2018-Mar-15 04:59N 24°02' W 076°22'0 0.0
2018-Mar-15 04:30N 24°02' W 076°22'0 0.0
2018-Mar-15 04:00N 24°02' W 076°22'0 0.0
2018-Mar-15 03:30N 24°02' W 076°22'0 0.0
2018-Mar-15 02:59N 24°02' W 076°22'0 0.0
2018-Mar-15 02:29N 24°02' W 076°22'0 0.0
2018-Mar-15 01:59N 24°02' W 076°22'0 0.0
2018-Mar-15 01:29N 24°02' W 076°22'0 0.0
2018-Mar-15 00:59N 24°02' W 076°22'0 0.0
2018-Mar-14 21:33N 24°02' W 076°22'0 0.0
2018-Mar-14 21:02N 24°02' W 076°22'0 0.1
2018-Mar-14 20:56N 24°02' W 076°22'0 0.0
2018-Mar-14 20:30N 24°02' W 076°22'0 0.0
2018-Mar-14 19:59N 24°02' W 076°22'0 0.0
2018-Mar-14 19:30N 24°02' W 076°22'0 0.0
2018-Mar-14 18:59N 24°02' W 076°22'0 0.0
2018-Mar-14 18:29N 24°02' W 076°22'0 0.0
2018-Mar-14 18:00N 24°02' W 076°22'0 0.0
2018-Mar-14 17:29N 24°02' W 076°22'0 0.0
2018-Mar-14 16:59N 24°02' W 076°22'0 0.0
2018-Mar-14 16:30N 24°02' W 076°22'0 0.0
2018-Mar-14 15:57N 24°02' W 076°22'0 0.0
2018-Mar-14 15:30N 24°02' W 076°22'0 0.0
2018-Mar-14 14:59N 24°02' W 076°22'4 2.5
2018-Mar-14 13:32N 24°04' W 076°26'010.0
2018-Mar-14 13:30N 24°04' W 076°26'510.2
2018-Mar-14 13:00N 24°08' W 076°29'3 5.2
2018-Mar-14 12:28N 24°11' W 076°28'0 0.0
2018-Mar-14 06:49N 24°11' W 076°28'0 0.0
2018-Mar-14 06:28N 24°11' W 076°28'0 0.0
2018-Mar-14 05:58N 24°11' W 076°28'0 0.0
2018-Mar-14 05:28N 24°11' W 076°28'0 0.0
2018-Mar-14 04:58N 24°11' W 076°28'0 0.0
2018-Mar-14 04:28N 24°11' W 076°28'0 0.0
2018-Mar-14 03:58N 24°11' W 076°28'0 0.0
2018-Mar-14 03:28N 24°11' W 076°28'0 0.0
2018-Mar-14 02:58N 24°11' W 076°28'0 0.0
2018-Mar-14 02:28N 24°11' W 076°28'0 0.0
2018-Mar-14 01:58N 24°11' W 076°28'0 0.0
2018-Mar-14 01:28N 24°11' W 076°28'0 0.0
2018-Mar-14 00:58N 24°11' W 076°28'0 0.0
2018-Mar-13 22:32N 24°11' W 076°28'0 0.0
2018-Mar-13 22:20N 24°11' W 076°28'0 0.0
2018-Mar-13 21:56N 24°11' W 076°28'0 0.0
2018-Mar-13 21:29N 24°11' W 076°28'0 0.0
2018-Mar-13 20:58N 24°11' W 076°28'0 0.0
2018-Mar-13 20:28N 24°11' W 076°28'0 0.0
2018-Mar-13 19:58N 24°11' W 076°28'0 0.0
2018-Mar-13 19:28N 24°11' W 076°28'0 0.0
2018-Mar-13 18:58N 24°11' W 076°28'0 0.0
2018-Mar-13 18:28N 24°11' W 076°28'0 0.0
2018-Mar-13 17:58N 24°11' W 076°28'8 0.2
2018-Mar-12 05:57N 24°18' W 076°32'  

Dump ship's entire track history